Riffel, Illinois
Current Conditions -  °F | °C
As of 8:55 AM on Friday 19 Dec 2014 (Local Time) from KFOA Reporting Station
Haze Haze  
Wind Chill: 29°   Ceiling: Unl
Heat Index: 29°   Visibility: 5mi
Dew Point: 25°   Wind: 3mph
Humidity: 84%   Direction: 70°ENE
Pressure: 30.34"   Gusts: NA
Location:  38.8267°N, 88.5024°W
Report Text: KFOA 191455Z AUTO 07003KT 5SM BR CLR M02/M04 A3034 RMK AO2 T10171040
Loading
Personal Weather Stations






























Interactive Weather Map New forecast layout! Learn more

10-Day Weather Forecast

Advertisements
Track Severe Weather on mobile